createdAt,value
2022-10-25T00:01:48.329Z,15.26
2022-10-25T00:04:15.783Z,15.24
2022-10-25T00:06:43.187Z,15.23
2022-10-25T00:09:10.743Z,15.21
2022-10-25T00:11:37.578Z,15.22
2022-10-25T00:14:06.332Z,15.22
2022-10-25T00:16:36.995Z,15.23
2022-10-25T00:19:05.370Z,15.25
2022-10-25T00:21:32.709Z,15.23
2022-10-25T00:23:59.657Z,15.24
2022-10-25T00:26:26.445Z,15.24
2022-10-25T00:28:55.294Z,15.26
2022-10-25T00:31:23.309Z,15.30
2022-10-25T00:33:50.257Z,15.26
2022-10-25T00:36:22.736Z,15.24
2022-10-25T00:38:49.826Z,15.22
2022-10-25T00:41:19.946Z,15.19
2022-10-25T00:43:55.623Z,15.18
2022-10-25T00:46:27.100Z,15.17
2022-10-25T00:49:23.172Z,15.16
2022-10-25T00:51:56.230Z,15.16
2022-10-25T00:54:26.872Z,15.19
2022-10-25T00:56:55.013Z,15.18
2022-10-25T00:59:27.187Z,15.18
2022-10-25T01:01:55.965Z,15.14
2022-10-25T01:04:26.675Z,15.09
2022-10-25T01:06:54.278Z,15.09
2022-10-25T01:09:25.126Z,15.05
2022-10-25T01:11:52.045Z,15.03
2022-10-25T01:14:19.589Z,15.05
2022-10-25T01:16:55.297Z,15.07
2022-10-25T01:19:25.176Z,15.03
2022-10-25T01:22:12.313Z,15.04
2022-10-25T01:24:48.290Z,15.05
2022-10-25T01:27:54.002Z,15.05
2022-10-25T01:30:23.885Z,15.04
2022-10-25T01:33:08.988Z,15.07
2022-10-25T01:35:46.981Z,15.10
2022-10-25T01:38:56.415Z,15.10
2022-10-25T01:42:00.527Z,15.05
2022-10-25T01:45:04.963Z,15.05
2022-10-25T01:48:00.775Z,15.02
2022-10-25T01:50:34.304Z,15.03
2022-10-25T01:53:01.030Z,15.04
2022-10-25T01:55:35.225Z,15.04
2022-10-25T01:58:23.449Z,15.04
2022-10-25T02:01:11.759Z,15.05
2022-10-25T02:04:23.945Z,15.05
2022-10-25T02:07:06.862Z,15.05
2022-10-25T02:09:44.414Z,15.03
2022-10-25T02:12:19.197Z,14.98
2022-10-25T02:15:08.812Z,14.96
2022-10-25T02:17:42.717Z,15.00
2022-10-25T02:20:11.665Z,14.99
2022-10-25T02:22:39.806Z,15.01
2022-10-25T02:25:08.934Z,15.02
2022-10-25T02:27:39.234Z,15.06
2022-10-25T02:30:07.705Z,15.05
2022-10-25T02:32:34.876Z,15.06
2022-10-25T02:35:04.623Z,15.07
2022-10-25T02:37:32.606Z,15.04
2022-10-25T02:39:59.954Z,15.05
2022-10-25T02:42:27.012Z,15.06
2022-10-25T02:44:53.945Z,15.05
2022-10-25T02:47:20.697Z,15.08
2022-10-25T02:49:47.459Z,15.08
2022-10-25T02:52:14.234Z,15.09
2022-10-25T02:54:40.960Z,15.07
2022-10-25T02:57:07.727Z,15.05
2022-10-25T02:59:34.523Z,15.03
2022-10-25T03:02:01.529Z,15.03
2022-10-25T03:04:28.335Z,15.07
2022-10-25T03:06:55.192Z,15.09
2022-10-25T03:09:21.943Z,15.10
2022-10-25T03:11:48.710Z,15.11
2022-10-25T03:14:15.736Z,15.10
2022-10-25T03:16:42.599Z,15.09
2022-10-25T03:19:09.642Z,15.12
2022-10-25T03:21:38.684Z,15.11
2022-10-25T03:24:08.283Z,15.11
2022-10-25T03:26:35.215Z,15.06
2022-10-25T03:29:01.929Z,15.03
2022-10-25T03:31:28.954Z,15.01
2022-10-25T03:33:55.702Z,15.03
2022-10-25T03:36:22.471Z,15.03
2022-10-25T03:38:49.217Z,15.03
2022-10-25T03:41:16.048Z,15.01
2022-10-25T03:43:42.781Z,14.98
2022-10-25T03:46:09.475Z,14.97
2022-10-25T03:48:36.718Z,14.92
2022-10-25T03:51:03.499Z,14.94
2022-10-25T03:53:31.271Z,14.96
2022-10-25T03:55:58.242Z,14.98
2022-10-25T03:58:25.057Z,14.95
2022-10-25T04:00:51.897Z,14.90
2022-10-25T04:03:18.652Z,14.90
2022-10-25T04:05:45.566Z,14.92
2022-10-25T04:08:12.355Z,14.98
2022-10-25T04:10:39.216Z,15.01
2022-10-25T04:13:05.976Z,15.03
2022-10-25T04:15:32.788Z,15.01
2022-10-25T04:17:59.536Z,14.97
2022-10-25T04:20:26.274Z,14.94
2022-10-25T04:22:55.277Z,14.96
2022-10-25T04:25:22.867Z,14.96
2022-10-25T04:27:49.862Z,14.98
2022-10-25T04:30:16.859Z,14.96
2022-10-25T04:32:44.089Z,14.93
2022-10-25T04:35:12.927Z,14.88
2022-10-25T04:37:39.692Z,14.89
2022-10-25T04:40:07.236Z,14.88
2022-10-25T04:42:34.856Z,14.88
2022-10-25T04:45:01.883Z,14.90
2022-10-25T04:47:33.030Z,14.91
2022-10-25T04:49:59.805Z,14.93
2022-10-25T04:52:26.599Z,14.93
2022-10-25T04:54:53.303Z,14.94
2022-10-25T04:57:20.008Z,14.94
2022-10-25T04:59:46.811Z,14.95
2022-10-25T05:02:14.696Z,14.96
2022-10-25T05:04:42.446Z,14.94
2022-10-25T05:07:09.236Z,14.93
2022-10-25T05:09:36.102Z,14.91
2022-10-25T05:12:02.926Z,14.93
2022-10-25T05:14:29.719Z,14.96
2022-10-25T05:16:56.639Z,14.97
2022-10-25T05:19:23.387Z,14.96
2022-10-25T05:21:50.421Z,14.94
2022-10-25T05:24:17.214Z,14.92
2022-10-25T05:26:44.220Z,14.94
2022-10-25T05:29:12.929Z,14.99
2022-10-25T05:31:41.232Z,15.01
2022-10-25T05:34:10.410Z,15.03
2022-10-25T05:36:37.591Z,15.02
2022-10-25T05:39:04.390Z,15.01
2022-10-25T05:41:34.589Z,15.05
2022-10-25T05:44:04.553Z,15.09
2022-10-25T05:46:31.838Z,15.12
2022-10-25T05:48:59.746Z,15.13
2022-10-25T05:51:37.185Z,15.13
2022-10-25T05:54:10.633Z,15.13
2022-10-25T05:56:38.643Z,15.15
2022-10-25T05:59:11.191Z,15.19
2022-10-25T06:01:40.916Z,15.26
2022-10-25T06:04:08.678Z,15.26
2022-10-25T06:06:36.397Z,15.27
2022-10-25T06:09:04.082Z,15.28
2022-10-25T06:11:31.846Z,15.32
2022-10-25T06:13:59.039Z,15.34
2022-10-25T06:16:25.794Z,15.37
2022-10-25T06:18:54.281Z,15.39
2022-10-25T06:21:23.995Z,15.40
2022-10-25T06:23:51.775Z,15.38
2022-10-25T06:26:23.977Z,15.36
2022-10-25T06:28:56.626Z,15.34
2022-10-25T06:31:24.105Z,15.32
2022-10-25T06:33:51.159Z,15.32
2022-10-25T06:36:20.965Z,15.31
2022-10-25T06:38:48.600Z,15.29
2022-10-25T06:41:24.119Z,15.25
2022-10-25T06:43:51.768Z,15.23
2022-10-25T06:46:28.532Z,15.23
2022-10-25T06:48:56.603Z,15.22
2022-10-25T06:51:25.169Z,15.21
2022-10-25T06:53:56.024Z,15.27
2022-10-25T06:56:23.687Z,15.31
2022-10-25T06:58:50.699Z,15.33
2022-10-25T07:01:19.673Z,15.35
2022-10-25T07:03:46.676Z,15.33
2022-10-25T07:06:16.174Z,15.30
2022-10-25T07:08:44.947Z,15.28
2022-10-25T07:11:16.996Z,15.28
2022-10-25T07:13:44.402Z,15.28
2022-10-25T07:16:13.500Z,15.26
2022-10-25T07:18:40.237Z,15.26
2022-10-25T07:21:23.561Z,15.32
2022-10-25T07:23:51.314Z,15.29
2022-10-25T07:26:44.354Z,15.27
2022-10-25T07:29:11.111Z,15.27
2022-10-25T07:31:41.337Z,15.29
2022-10-25T07:34:08.141Z,15.30
2022-10-25T07:36:35.055Z,15.30
2022-10-25T07:39:01.882Z,15.30
2022-10-25T07:41:29.182Z,15.33
2022-10-25T07:43:56.096Z,15.33
2022-10-25T07:46:23.289Z,15.29
2022-10-25T07:48:52.567Z,15.27
2022-10-25T07:51:20.604Z,15.27
2022-10-25T07:53:47.941Z,15.29
2022-10-25T07:56:20.488Z,15.29
2022-10-25T07:58:51.494Z,15.29
2022-10-25T08:01:23.594Z,15.30
2022-10-25T08:03:52.254Z,15.33
2022-10-25T08:06:20.360Z,15.34
2022-10-25T08:08:47.558Z,15.33
2022-10-25T08:11:14.856Z,15.35
2022-10-25T08:13:42.010Z,15.36
2022-10-25T08:16:09.130Z,15.41
2022-10-25T08:18:35.957Z,15.44
2022-10-25T08:21:04.284Z,15.45
2022-10-25T08:23:32.827Z,15.42
2022-10-25T08:26:00.779Z,15.47
2022-10-25T08:28:28.256Z,15.52
2022-10-25T08:30:55.912Z,15.54
2022-10-25T08:33:26.561Z,15.57
2022-10-25T08:35:53.315Z,15.59
2022-10-25T08:38:20.221Z,15.60
2022-10-25T08:40:59.050Z,15.66
2022-10-25T08:43:58.280Z,15.71
2022-10-25T08:46:33.696Z,15.71
2022-10-25T08:49:33.578Z,15.70
2022-10-25T08:52:02.766Z,15.72
2022-10-25T08:54:43.126Z,15.77
2022-10-25T08:57:27.757Z,15.82
2022-10-25T09:00:01.856Z,15.86
2022-10-25T09:02:42.263Z,15.86
2022-10-25T09:05:36.949Z,15.91
2022-10-25T09:08:23.908Z,15.97
2022-10-25T09:11:12.886Z,16.00
2022-10-25T09:13:45.733Z,16.03
2022-10-25T09:16:16.764Z,16.06
2022-10-25T09:18:55.241Z,16.09
2022-10-25T09:21:25.398Z,16.16
2022-10-25T09:24:11.223Z,16.23
2022-10-25T09:26:37.944Z,16.30
2022-10-25T09:29:27.999Z,16.36
2022-10-25T09:31:59.107Z,16.37
2022-10-25T09:34:31.433Z,16.40
2022-10-25T09:37:07.207Z,16.47
2022-10-25T09:39:40.216Z,16.51
2022-10-25T09:42:16.935Z,16.55
2022-10-25T09:44:48.619Z,16.57
2022-10-25T09:47:26.481Z,16.60
2022-10-25T09:50:04.130Z,16.67
2022-10-25T09:52:30.873Z,16.74
2022-10-25T09:55:06.710Z,16.81
2022-10-25T09:57:33.996Z,16.87
2022-10-25T10:00:00.787Z,16.89
2022-10-25T10:02:28.318Z,16.93
2022-10-25T10:04:55.295Z,16.94
2022-10-25T10:07:36.329Z,16.97
2022-10-25T10:10:08.022Z,17.00
2022-10-25T10:13:16.774Z,17.02
2022-10-25T10:15:59.904Z,17.03
2022-10-25T10:18:34.846Z,17.06
2022-10-25T10:21:16.282Z,17.10
2022-10-25T10:24:04.949Z,17.15
2022-10-25T10:26:45.127Z,17.17
2022-10-25T10:29:16.768Z,17.20
2022-10-25T10:31:48.546Z,17.20
2022-10-25T10:34:41.443Z,17.22
2022-10-25T10:37:15.878Z,17.25
2022-10-25T10:39:59.446Z,17.27
2022-10-25T10:42:32.542Z,17.28
2022-10-25T10:45:08.386Z,17.29
2022-10-25T10:47:42.954Z,17.30
2022-10-25T10:50:25.799Z,17.33
2022-10-25T10:53:05.266Z,17.37
2022-10-25T10:55:36.464Z,17.35
2022-10-25T10:58:04.236Z,17.43
2022-10-25T11:00:32.878Z,17.54
2022-10-25T11:03:00.165Z,17.60
2022-10-25T11:05:35.368Z,17.60
2022-10-25T11:08:22.398Z,17.59
2022-10-25T11:10:49.274Z,17.61
2022-10-25T11:13:23.426Z,17.61
2022-10-25T11:16:12.480Z,17.62
2022-10-25T11:18:57.952Z,17.66
2022-10-25T11:21:47.641Z,17.66
2022-10-25T11:24:48.147Z,17.69
2022-10-25T11:27:20.636Z,17.68
2022-10-25T11:29:59.642Z,17.68
2022-10-25T11:33:04.310Z,17.69
2022-10-25T11:35:40.041Z,17.72
2022-10-25T11:38:35.845Z,17.77
2022-10-25T11:41:28.247Z,17.80
2022-10-25T11:44:00.790Z,17.81
2022-10-25T11:46:51.865Z,17.82
2022-10-25T11:49:43.310Z,17.82
2022-10-25T11:55:21.948Z,17.82
2022-10-25T11:57:51.657Z,17.81
2022-10-25T12:00:24.422Z,17.78
2022-10-25T12:02:57.321Z,17.78
2022-10-25T12:05:28.112Z,17.76
2022-10-25T12:08:16.427Z,17.76
2022-10-25T12:10:50.159Z,17.76
2022-10-25T12:13:31.594Z,17.75
2022-10-25T12:15:59.471Z,17.76
2022-10-25T12:18:38.279Z,17.79
2022-10-25T12:21:07.221Z,17.78
2022-10-25T12:23:47.445Z,17.79
2022-10-25T12:26:28.002Z,17.78
2022-10-25T12:28:57.185Z,17.76
2022-10-25T12:31:27.534Z,17.78
2022-10-25T12:34:01.914Z,17.77
2022-10-25T12:36:36.589Z,17.76
2022-10-25T12:39:12.682Z,17.74
2022-10-25T12:41:43.155Z,17.73
2022-10-25T12:44:28.500Z,17.76
2022-10-25T12:47:13.688Z,17.79
2022-10-25T12:49:50.263Z,17.82
2022-10-25T12:52:38.706Z,17.87
2022-10-25T12:55:42.668Z,17.89
2022-10-25T12:58:30.690Z,17.89
2022-10-25T13:01:33.550Z,17.91
2022-10-25T13:04:45.090Z,17.93
2022-10-25T13:07:13.882Z,17.98
2022-10-25T13:09:41.732Z,18.00
2022-10-25T13:12:30.784Z,18.02
2022-10-25T13:14:59.951Z,18.03
2022-10-25T13:17:26.694Z,18.06
2022-10-25T13:19:56.028Z,18.09
2022-10-25T13:22:40.424Z,18.11
2022-10-25T13:25:12.962Z,18.12
2022-10-25T13:28:01.207Z,18.13
2022-10-25T13:30:32.121Z,18.15
2022-10-25T13:33:38.568Z,18.14
2022-10-25T13:36:06.123Z,18.15
2022-10-25T13:38:39.387Z,18.11
2022-10-25T13:41:06.730Z,18.10
2022-10-25T13:43:34.210Z,18.12
2022-10-25T13:46:01.199Z,18.11
2022-10-25T13:48:31.914Z,18.13
2022-10-25T13:51:01.628Z,18.11
2022-10-25T13:53:42.601Z,18.07
2022-10-25T13:56:16.193Z,18.03
2022-10-25T13:58:55.021Z,18.04
2022-10-25T14:01:23.172Z,18.05
2022-10-25T14:04:02.216Z,18.06
2022-10-25T14:06:35.083Z,18.06
2022-10-25T14:09:40.193Z,18.08
2022-10-25T14:12:20.209Z,18.10
2022-10-25T14:15:28.701Z,18.11
2022-10-25T14:17:58.017Z,18.10
2022-10-25T14:20:32.681Z,18.11
2022-10-25T14:23:03.058Z,18.10
2022-10-25T14:25:51.175Z,18.12
2022-10-25T14:28:23.562Z,18.15
2022-10-25T14:30:53.703Z,18.16
2022-10-25T14:33:30.068Z,18.19
2022-10-25T14:36:19.895Z,18.20
2022-10-25T14:39:00.229Z,18.19
2022-10-25T14:41:29.723Z,18.18
2022-10-25T14:43:57.325Z,18.19
2022-10-25T14:46:26.403Z,18.21
2022-10-25T14:49:01.272Z,18.21
2022-10-25T14:51:33.274Z,18.19
2022-10-25T14:54:02.866Z,18.20
2022-10-25T14:56:35.191Z,18.16
2022-10-25T14:59:03.911Z,18.15
2022-10-25T15:01:30.767Z,18.15
2022-10-25T15:04:00.315Z,18.14
2022-10-25T15:06:31.561Z,18.12
2022-10-25T15:09:30.068Z,18.10
2022-10-25T15:12:20.102Z,18.06
2022-10-25T15:14:48.510Z,18.10
2022-10-25T15:17:17.186Z,18.13
2022-10-25T15:20:00.806Z,18.13
2022-10-25T15:22:33.000Z,18.10
2022-10-25T15:24:59.952Z,18.07
2022-10-25T15:27:32.840Z,18.02
2022-10-25T15:29:59.620Z,18.01
2022-10-25T15:32:27.803Z,17.98
2022-10-25T15:35:00.728Z,17.98
2022-10-25T15:37:29.219Z,17.99
2022-10-25T15:39:56.895Z,17.99
2022-10-25T15:42:26.041Z,17.98
2022-10-25T15:44:53.130Z,17.99
2022-10-25T15:47:32.413Z,17.96
2022-10-25T15:50:00.023Z,17.92
2022-10-25T15:52:27.270Z,17.92
2022-10-25T15:54:54.226Z,17.92
2022-10-25T15:57:21.375Z,17.93
2022-10-25T15:59:48.142Z,17.91
2022-10-25T16:02:21.322Z,17.92
2022-10-25T16:04:48.663Z,17.86
2022-10-25T16:07:16.421Z,17.86
2022-10-25T16:09:43.884Z,17.86
2022-10-25T16:12:20.561Z,17.86
2022-10-25T16:14:49.715Z,17.83
2022-10-25T16:17:16.484Z,17.83
2022-10-25T16:19:43.213Z,17.84
2022-10-25T16:22:09.992Z,17.82
2022-10-25T16:24:36.770Z,17.81
2022-10-25T16:27:03.951Z,17.78
2022-10-25T16:29:30.996Z,17.78
2022-10-25T16:31:57.769Z,17.75
2022-10-25T16:34:24.638Z,17.71
2022-10-25T16:36:52.713Z,17.67
2022-10-25T16:39:19.829Z,17.68
2022-10-25T16:41:47.744Z,17.64
2022-10-25T16:44:17.559Z,17.62
2022-10-25T16:46:45.340Z,17.62
2022-10-25T16:49:12.324Z,17.63
2022-10-25T16:51:40.061Z,17.59
2022-10-25T16:54:07.446Z,17.56
2022-10-25T16:56:34.340Z,17.53
2022-10-25T16:59:01.329Z,17.49
2022-10-25T17:01:33.843Z,17.48
2022-10-25T17:04:01.878Z,17.43
2022-10-25T17:06:40.913Z,17.39
2022-10-25T17:09:08.718Z,17.37
2022-10-25T17:11:36.466Z,17.34
2022-10-25T17:14:03.997Z,17.32
2022-10-25T17:16:30.933Z,17.30
2022-10-25T17:18:58.320Z,17.30
2022-10-25T17:21:25.049Z,17.29
2022-10-25T17:23:51.829Z,17.29
2022-10-25T17:26:18.705Z,17.27
2022-10-25T17:28:45.421Z,17.25
2022-10-25T17:31:14.918Z,17.26
2022-10-25T17:33:42.468Z,17.24
2022-10-25T17:36:14.154Z,17.22
2022-10-25T17:38:41.808Z,17.19
2022-10-25T17:41:09.191Z,17.16
2022-10-25T17:43:37.471Z,17.14
2022-10-25T17:46:06.457Z,17.11
2022-10-25T17:48:33.623Z,17.09
2022-10-25T17:51:02.430Z,17.09
2022-10-25T17:53:29.237Z,17.08
2022-10-25T17:55:56.368Z,17.07
2022-10-25T17:58:23.254Z,17.06
2022-10-25T18:00:50.227Z,17.02
2022-10-25T18:03:17.106Z,17.00
2022-10-25T18:05:44.053Z,16.99
2022-10-25T18:08:30.028Z,16.98
2022-10-25T18:10:57.008Z,16.96
2022-10-25T18:13:31.298Z,16.96
2022-10-25T18:16:01.315Z,16.96
2022-10-25T18:18:28.158Z,16.95
2022-10-25T18:20:54.904Z,16.94
2022-10-25T18:23:22.414Z,16.94
2022-10-25T18:25:52.917Z,16.94
2022-10-25T18:28:20.087Z,16.94
2022-10-25T18:30:46.913Z,16.93
2022-10-25T18:33:15.301Z,16.90
2022-10-25T18:35:42.411Z,16.88
2022-10-25T18:38:09.129Z,16.86
2022-10-25T18:40:36.197Z,16.87
2022-10-25T18:43:02.931Z,16.87
2022-10-25T18:45:30.123Z,16.87
2022-10-25T18:47:59.136Z,16.87
2022-10-25T18:50:26.670Z,16.85
2022-10-25T18:52:53.463Z,16.84
2022-10-25T18:55:26.866Z,16.86
2022-10-25T18:57:55.063Z,16.85
2022-10-25T19:00:27.882Z,16.85
2022-10-25T19:02:55.415Z,16.86
2022-10-25T19:05:23.795Z,16.83
2022-10-25T19:07:51.102Z,16.81
2022-10-25T19:10:18.284Z,16.80
2022-10-25T19:12:45.312Z,16.79
2022-10-25T19:15:13.491Z,16.82
2022-10-25T19:17:40.411Z,16.83
2022-10-25T19:20:07.785Z,16.84
2022-10-25T19:22:35.503Z,16.83
2022-10-25T19:25:02.292Z,16.82
2022-10-25T19:27:29.850Z,16.82
2022-10-25T19:29:57.933Z,16.83
2022-10-25T19:32:24.773Z,16.80
2022-10-25T19:37:40.130Z,16.83
2022-10-25T19:40:08.505Z,16.83
2022-10-25T19:42:35.379Z,16.81
2022-10-25T19:45:03.531Z,16.80
2022-10-25T19:47:30.398Z,16.79
2022-10-25T19:50:05.661Z,16.82
2022-10-25T19:52:36.298Z,16.80
2022-10-25T19:57:50.921Z,16.82
2022-10-25T20:00:17.893Z,16.81
2022-10-25T20:02:44.613Z,16.85
2022-10-25T20:07:58.220Z,16.94
2022-10-25T20:10:25.593Z,16.93
2022-10-25T20:12:52.339Z,16.92
2022-10-25T20:15:19.194Z,16.91
2022-10-25T20:17:46.327Z,16.89
2022-10-25T20:20:13.462Z,16.88
2022-10-25T20:22:40.233Z,16.88
2022-10-25T20:25:07.728Z,16.88
2022-10-25T20:27:34.726Z,16.88
2022-10-25T20:30:01.488Z,16.88
2022-10-25T20:32:28.310Z,16.87
2022-10-25T20:34:55.115Z,16.86
2022-10-25T20:37:21.926Z,16.86
2022-10-25T20:39:48.797Z,16.86
2022-10-25T20:42:17.887Z,16.86
2022-10-25T20:44:44.752Z,16.87
2022-10-25T20:47:11.536Z,16.88
2022-10-25T20:49:38.281Z,16.89
2022-10-25T20:52:05.139Z,16.89
2022-10-25T20:54:31.952Z,16.87
2022-10-25T20:56:58.686Z,16.87
2022-10-25T20:59:25.528Z,16.86
2022-10-25T21:01:52.719Z,16.88
2022-10-25T21:04:30.410Z,16.89
2022-10-25T21:07:03.898Z,16.91
2022-10-25T21:09:30.786Z,16.91
2022-10-25T21:11:57.567Z,16.94
2022-10-25T21:14:24.422Z,16.92
2022-10-25T21:16:51.150Z,16.95
2022-10-25T21:19:17.925Z,16.95
2022-10-25T21:21:44.642Z,16.95
2022-10-25T21:24:11.505Z,16.95
2022-10-25T21:26:38.484Z,16.95
2022-10-25T21:29:07.318Z,16.97
2022-10-25T21:31:34.191Z,17.01
2022-10-25T21:34:01.214Z,17.01
2022-10-25T21:36:28.352Z,17.02
2022-10-25T21:38:55.542Z,17.04
2022-10-25T21:41:27.338Z,17.04
2022-10-25T21:43:55.467Z,17.03
2022-10-25T21:46:23.561Z,17.02
2022-10-25T21:48:50.880Z,17.00
2022-10-25T21:51:21.780Z,17.00
2022-10-25T21:53:48.702Z,16.99
2022-10-25T21:56:20.462Z,17.01
2022-10-25T21:59:11.333Z,17.01
2022-10-25T22:01:38.293Z,17.01
2022-10-25T22:04:05.154Z,17.01
2022-10-25T22:06:31.914Z,17.01
2022-10-25T22:08:58.629Z,17.01
2022-10-25T22:11:31.753Z,17.03
2022-10-25T22:14:01.255Z,17.04
2022-10-25T22:16:29.325Z,17.06
2022-10-25T22:19:08.305Z,17.07
2022-10-25T22:21:38.354Z,17.08
2022-10-25T22:24:08.667Z,17.11
2022-10-25T22:26:36.938Z,17.13
2022-10-25T22:29:04.325Z,17.12
2022-10-25T22:31:31.785Z,17.11
2022-10-25T22:34:01.332Z,17.09
2022-10-25T22:36:37.418Z,17.12
2022-10-25T22:39:05.434Z,17.15
2022-10-25T22:41:32.306Z,17.19
2022-10-25T22:43:59.888Z,17.19
2022-10-25T22:46:32.514Z,17.18
2022-10-25T22:49:04.054Z,17.20
2022-10-25T22:51:31.125Z,17.18
2022-10-25T22:53:58.158Z,17.17
2022-10-25T22:56:27.622Z,17.16
2022-10-25T22:59:00.394Z,17.16
2022-10-25T23:01:28.999Z,17.18
2022-10-25T23:03:57.676Z,17.14
2022-10-25T23:06:33.471Z,17.13
2022-10-25T23:09:02.553Z,17.13
2022-10-25T23:11:33.599Z,17.14
2022-10-25T23:14:01.658Z,17.14
2022-10-25T23:16:29.650Z,17.16
2022-10-25T23:18:56.555Z,17.17
2022-10-25T23:21:25.454Z,17.17
2022-10-25T23:23:54.384Z,17.18
2022-10-25T23:26:23.895Z,17.19
2022-10-25T23:28:51.150Z,17.19
2022-10-25T23:31:18.358Z,17.19
2022-10-25T23:33:45.838Z,17.20
2022-10-25T23:36:15.862Z,17.21
2022-10-25T23:38:46.210Z,17.25
2022-10-25T23:41:13.197Z,17.25
2022-10-25T23:43:40.580Z,17.26
2022-10-25T23:46:08.050Z,17.28
2022-10-25T23:48:35.007Z,17.25
2022-10-25T23:51:04.427Z,17.26
2022-10-25T23:53:31.737Z,17.28
2022-10-25T23:55:59.039Z,17.29
2022-10-25T23:58:25.818Z,17.33
